createdAt,value
2022-10-27T00:01:28.031Z,17.74
2022-10-27T00:03:54.848Z,18.75
2022-10-27T00:06:21.616Z,19.78
2022-10-27T00:08:48.357Z,20.50
2022-10-27T00:11:15.148Z,21.02
2022-10-27T00:13:41.894Z,21.47
2022-10-27T00:16:08.661Z,21.42
2022-10-27T00:18:35.490Z,21.48
2022-10-27T00:21:02.298Z,21.54
2022-10-27T00:23:29.067Z,21.75
2022-10-27T00:25:55.849Z,21.80
2022-10-27T00:28:22.658Z,21.79
2022-10-27T00:30:50.499Z,21.88
2022-10-27T00:33:17.333Z,22.00
2022-10-27T00:35:44.098Z,22.03
2022-10-27T00:38:10.843Z,21.64
2022-10-27T00:40:37.576Z,18.73
2022-10-27T00:43:04.392Z,17.49
2022-10-27T00:45:31.179Z,18.61
2022-10-27T00:47:57.930Z,19.79
2022-10-27T00:50:24.748Z,20.43
2022-10-27T00:52:51.501Z,20.98
2022-10-27T00:55:18.325Z,21.15
2022-10-27T00:57:45.108Z,21.37
2022-10-27T01:00:11.848Z,21.43
2022-10-27T01:02:38.684Z,21.51
2022-10-27T01:05:05.461Z,21.60
2022-10-27T01:07:32.318Z,21.75
2022-10-27T01:09:59.083Z,21.77
2022-10-27T01:12:25.839Z,21.83
2022-10-27T01:14:52.585Z,21.96
2022-10-27T01:17:19.321Z,22.07
2022-10-27T01:19:46.068Z,22.12
2022-10-27T01:22:12.816Z,19.47
2022-10-27T01:24:39.618Z,18.09
2022-10-27T01:27:06.404Z,18.51
2022-10-27T01:29:33.144Z,19.59
2022-10-27T01:31:59.896Z,20.38
2022-10-27T01:34:26.664Z,20.87
2022-10-27T01:36:53.432Z,21.21
2022-10-27T01:39:20.927Z,21.33
2022-10-27T01:41:47.735Z,21.41
2022-10-27T01:44:14.497Z,21.48
2022-10-27T01:46:41.262Z,21.53
2022-10-27T01:49:08.019Z,21.80
2022-10-27T01:51:34.771Z,21.76
2022-10-27T01:54:01.607Z,21.84
2022-10-27T01:56:28.358Z,21.97
2022-10-27T01:58:55.096Z,22.10
2022-10-27T02:01:22.037Z,21.95
2022-10-27T02:03:48.885Z,19.23
2022-10-27T02:06:15.689Z,17.94
2022-10-27T02:08:42.491Z,18.72
2022-10-27T02:11:09.344Z,19.69
2022-10-27T02:13:36.105Z,20.44
2022-10-27T02:16:02.902Z,20.97
2022-10-27T02:18:29.655Z,21.38
2022-10-27T02:20:56.466Z,21.32
2022-10-27T02:23:23.264Z,21.34
2022-10-27T02:25:50.058Z,21.70
2022-10-27T02:28:16.816Z,21.64
2022-10-27T02:30:43.575Z,21.76
2022-10-27T02:33:10.338Z,21.93
2022-10-27T02:35:37.133Z,21.95
2022-10-27T02:38:03.878Z,22.09
2022-10-27T02:40:30.707Z,22.07
2022-10-27T02:42:57.504Z,22.12
2022-10-27T02:45:24.304Z,19.48
2022-10-27T02:47:51.048Z,17.96
2022-10-27T02:50:17.789Z,18.38
2022-10-27T02:52:44.533Z,19.61
2022-10-27T02:55:11.284Z,20.30
2022-10-27T02:57:38.036Z,20.90
2022-10-27T03:00:04.777Z,21.30
2022-10-27T03:02:31.533Z,21.26
2022-10-27T03:04:58.277Z,21.45
2022-10-27T03:07:25.017Z,21.54
2022-10-27T03:09:51.777Z,21.78
2022-10-27T03:12:18.533Z,21.71
2022-10-27T03:14:45.289Z,21.75
2022-10-27T03:17:12.056Z,21.88
2022-10-27T03:19:38.800Z,21.91
2022-10-27T03:22:05.571Z,21.79
2022-10-27T03:24:32.329Z,19.28
2022-10-27T03:26:59.504Z,18.01
2022-10-27T03:29:26.974Z,18.65
2022-10-27T03:31:53.732Z,19.72
2022-10-27T03:34:21.250Z,20.52
2022-10-27T03:36:48.181Z,21.07
2022-10-27T03:39:14.946Z,21.07
2022-10-27T03:41:41.721Z,21.41
2022-10-27T03:44:08.474Z,21.41
2022-10-27T03:46:35.243Z,21.51
2022-10-27T03:49:01.985Z,21.65
2022-10-27T03:51:29.059Z,21.84
2022-10-27T03:53:55.830Z,21.83
2022-10-27T03:56:22.663Z,21.90
2022-10-27T03:58:49.437Z,21.86
2022-10-27T04:01:16.385Z,21.97
2022-10-27T04:03:43.249Z,22.12
2022-10-27T04:06:09.987Z,21.95
2022-10-27T04:08:36.736Z,19.35
2022-10-27T04:11:03.485Z,18.11
2022-10-27T04:13:30.952Z,18.76
2022-10-27T04:15:57.890Z,19.85
2022-10-27T04:18:24.654Z,20.75
2022-10-27T04:20:51.822Z,21.09
2022-10-27T04:23:18.579Z,21.29
2022-10-27T04:25:45.374Z,21.45
2022-10-27T04:28:12.146Z,21.49
2022-10-27T04:30:38.905Z,21.48
2022-10-27T04:33:05.696Z,21.73
2022-10-27T04:35:35.567Z,21.81
2022-10-27T04:38:02.465Z,21.79
2022-10-27T04:40:29.221Z,21.85
2022-10-27T04:42:56.062Z,21.88
2022-10-27T04:45:22.830Z,21.99
2022-10-27T04:47:49.891Z,21.58
2022-10-27T04:50:16.912Z,18.89
2022-10-27T04:52:44.598Z,17.70
2022-10-27T04:55:11.484Z,19.09
2022-10-27T04:57:38.236Z,19.99
2022-10-27T05:00:05.021Z,20.77
2022-10-27T05:02:34.679Z,21.17
2022-10-27T05:05:04.577Z,21.19
2022-10-27T05:07:31.347Z,21.44
2022-10-27T05:09:58.111Z,21.57
2022-10-27T05:12:24.855Z,21.80
2022-10-27T05:14:51.630Z,21.65
2022-10-27T05:17:19.530Z,21.80
2022-10-27T05:19:46.525Z,21.86
2022-10-27T05:22:13.313Z,21.95
2022-10-27T05:24:40.063Z,22.01
2022-10-27T05:27:06.854Z,22.03
2022-10-27T05:29:33.706Z,19.40
2022-10-27T05:32:00.457Z,17.91
2022-10-27T05:34:27.210Z,18.87
2022-10-27T05:36:53.971Z,19.83
2022-10-27T05:39:20.699Z,20.70
2022-10-27T05:41:47.486Z,21.11
2022-10-27T05:44:14.264Z,21.23
2022-10-27T05:46:41.061Z,21.47
2022-10-27T05:49:07.889Z,21.43
2022-10-27T05:51:34.644Z,21.49
2022-10-27T05:54:01.414Z,21.62
2022-10-27T05:56:28.190Z,21.79
2022-10-27T05:58:55.019Z,21.83
2022-10-27T06:01:22.026Z,21.95
2022-10-27T06:03:48.833Z,21.99
2022-10-27T06:06:15.592Z,21.50
2022-10-27T06:08:42.345Z,18.76
2022-10-27T06:11:09.084Z,17.67
2022-10-27T06:13:35.844Z,18.85
2022-10-27T06:16:02.605Z,19.92
2022-10-27T06:18:29.360Z,20.59
2022-10-27T06:20:56.129Z,21.02
2022-10-27T06:23:22.881Z,21.10
2022-10-27T06:25:49.682Z,21.42
2022-10-27T06:28:16.445Z,21.55
2022-10-27T06:30:43.223Z,21.61
2022-10-27T06:33:09.960Z,21.62
2022-10-27T06:35:36.787Z,21.76
2022-10-27T06:38:03.545Z,21.83
2022-10-27T06:40:30.361Z,22.00
2022-10-27T06:43:12.826Z,21.96
2022-10-27T06:45:39.775Z,19.52
2022-10-27T06:48:06.806Z,18.02
2022-10-27T06:50:33.544Z,18.07
2022-10-27T06:53:01.299Z,19.37
2022-10-27T06:55:28.088Z,20.36
2022-10-27T06:57:55.261Z,20.83
2022-10-27T07:00:22.229Z,21.10
2022-10-27T07:02:49.000Z,21.18
2022-10-27T07:05:15.745Z,21.37
2022-10-27T07:07:42.497Z,21.58
2022-10-27T07:10:09.330Z,21.59
2022-10-27T07:12:36.112Z,21.74
2022-10-27T07:15:02.852Z,21.65
2022-10-27T07:17:29.704Z,21.76
2022-10-27T07:19:56.516Z,22.11
2022-10-27T07:22:23.259Z,22.00
2022-10-27T07:24:50.122Z,21.22
2022-10-27T07:27:16.935Z,18.36
2022-10-27T07:29:43.735Z,17.80
2022-10-27T07:32:10.530Z,19.40
2022-10-27T07:34:37.311Z,20.35
2022-10-27T07:37:04.195Z,20.82
2022-10-27T07:39:30.953Z,21.20
2022-10-27T07:41:57.703Z,21.34
2022-10-27T07:44:24.469Z,21.38
2022-10-27T07:46:51.237Z,21.74
2022-10-27T07:49:17.980Z,21.68
2022-10-27T07:51:44.735Z,21.75
2022-10-27T07:54:11.519Z,21.87
2022-10-27T07:56:38.288Z,21.91
2022-10-27T07:59:05.104Z,22.08
2022-10-27T08:01:32.089Z,21.23
2022-10-27T08:03:58.927Z,18.88
2022-10-27T08:06:25.752Z,18.46
2022-10-27T08:08:52.550Z,20.20
2022-10-27T08:11:19.325Z,21.01
2022-10-27T08:13:46.157Z,21.28
2022-10-27T08:16:12.909Z,21.47
2022-10-27T08:18:39.648Z,21.67
2022-10-27T08:21:06.390Z,21.66
2022-10-27T08:23:33.193Z,21.54
2022-10-27T08:25:59.949Z,21.83
2022-10-27T08:28:26.721Z,21.83
2022-10-27T08:30:53.565Z,22.04
2022-10-27T08:33:20.317Z,22.00
2022-10-27T08:35:47.160Z,19.48
2022-10-27T08:38:14.842Z,18.65
2022-10-27T08:40:41.698Z,19.69
2022-10-27T08:43:08.477Z,20.92
2022-10-27T08:45:35.467Z,21.13
2022-10-27T08:48:02.257Z,21.33
2022-10-27T08:50:29.078Z,21.52
2022-10-27T08:52:57.815Z,21.68
2022-10-27T08:55:25.531Z,21.82
2022-10-27T08:57:52.689Z,21.94
2022-10-27T09:00:19.680Z,21.86
2022-10-27T09:02:46.540Z,22.07
2022-10-27T09:05:16.545Z,22.03
2022-10-27T09:07:44.354Z,19.09
2022-10-27T09:10:11.099Z,18.57
2022-10-27T09:12:37.829Z,20.06
2022-10-27T09:15:04.608Z,21.01
2022-10-27T09:17:31.817Z,21.39
2022-10-27T09:20:01.258Z,21.53
2022-10-27T09:22:28.036Z,21.72
2022-10-27T09:24:54.812Z,21.80
2022-10-27T09:27:21.550Z,21.81
2022-10-27T09:29:48.342Z,21.93
2022-10-27T09:32:15.103Z,22.08
2022-10-27T09:34:41.918Z,19.83
2022-10-27T09:37:08.661Z,18.79
2022-10-27T09:39:35.413Z,19.27
2022-10-27T09:42:02.177Z,21.07
2022-10-27T09:44:29.406Z,21.14
2022-10-27T09:46:56.161Z,21.59
2022-10-27T09:49:22.969Z,21.56
2022-10-27T09:51:49.738Z,21.69
2022-10-27T09:54:16.498Z,21.81
2022-10-27T09:56:43.241Z,21.88
2022-10-27T09:59:10.076Z,21.96
2022-10-27T10:01:36.861Z,19.73
2022-10-27T10:04:05.228Z,18.64
2022-10-27T10:06:34.262Z,19.17
2022-10-27T10:09:01.057Z,20.78
2022-10-27T10:11:27.805Z,21.10
2022-10-27T10:13:54.568Z,21.39
2022-10-27T10:16:21.345Z,21.62
2022-10-27T10:18:48.260Z,21.62
2022-10-27T10:21:15.035Z,21.74
2022-10-27T10:23:41.786Z,21.74
2022-10-27T10:26:08.641Z,21.94
2022-10-27T10:28:35.441Z,21.98
2022-10-27T10:31:02.250Z,21.46
2022-10-27T10:33:29.274Z,19.05
2022-10-27T10:35:56.230Z,18.53
2022-10-27T10:38:22.979Z,20.16
2022-10-27T10:40:49.721Z,21.03
2022-10-27T10:43:16.620Z,21.37
2022-10-27T10:45:43.535Z,21.48
2022-10-27T10:48:10.338Z,21.62
2022-10-27T10:50:37.113Z,21.87
2022-10-27T10:53:04.019Z,21.84
2022-10-27T10:55:30.858Z,22.13
2022-10-27T10:57:57.730Z,20.59
2022-10-27T11:00:24.616Z,18.89
2022-10-27T11:02:54.299Z,18.84
2022-10-27T11:07:51.505Z,21.13
2022-10-27T11:10:19.375Z,21.54
2022-10-27T11:12:46.153Z,21.56
2022-10-27T11:15:12.898Z,21.72
2022-10-27T11:17:39.642Z,21.79
2022-10-27T11:20:06.607Z,21.95
2022-10-27T11:22:33.377Z,22.00
2022-10-27T11:25:00.274Z,20.05
2022-10-27T11:27:27.213Z,18.78
2022-10-27T11:29:54.024Z,18.88
2022-10-27T11:32:20.769Z,20.71
2022-10-27T11:34:47.512Z,21.27
2022-10-27T11:37:14.276Z,21.40
2022-10-27T11:39:41.208Z,21.76
2022-10-27T11:42:07.972Z,21.91
2022-10-27T11:44:34.720Z,21.83
2022-10-27T11:47:01.756Z,21.92
2022-10-27T11:49:28.604Z,22.06
2022-10-27T11:51:55.342Z,19.28
2022-10-27T11:54:22.193Z,18.71
2022-10-27T11:56:49.009Z,19.76
2022-10-27T11:59:15.878Z,21.05
2022-10-27T12:01:42.868Z,21.34
2022-10-27T12:04:09.757Z,21.64
2022-10-27T12:06:36.512Z,21.72
2022-10-27T12:09:03.277Z,21.73
2022-10-27T12:11:30.047Z,21.82
2022-10-27T12:13:56.799Z,21.89
2022-10-27T12:16:23.580Z,21.56
2022-10-27T12:18:50.350Z,18.99
2022-10-27T12:21:17.092Z,18.62
2022-10-27T12:23:43.962Z,20.38
2022-10-27T12:26:10.728Z,21.41
2022-10-27T12:28:37.474Z,21.52
2022-10-27T12:31:04.253Z,21.64
2022-10-27T12:33:31.040Z,21.76
2022-10-27T12:35:57.782Z,21.81
2022-10-27T12:38:24.526Z,22.00
2022-10-27T12:40:51.289Z,22.13
2022-10-27T12:43:20.423Z,20.05
2022-10-27T12:45:47.338Z,18.95
2022-10-27T12:48:14.097Z,19.45
2022-10-27T12:50:40.842Z,21.10
2022-10-27T12:53:10.109Z,21.40
2022-10-27T12:55:37.149Z,21.65
2022-10-27T12:58:03.910Z,21.82
2022-10-27T13:00:30.650Z,22.08
2022-10-27T13:02:57.420Z,21.96
2022-10-27T13:05:24.201Z,22.07
2022-10-27T13:07:57.345Z,21.93
2022-10-27T13:10:27.393Z,19.14
2022-10-27T13:12:57.178Z,18.56
2022-10-27T13:15:23.953Z,20.28
2022-10-27T13:17:51.015Z,21.17
2022-10-27T13:20:18.040Z,21.53
2022-10-27T13:22:44.817Z,21.64
2022-10-27T13:25:11.576Z,21.78
2022-10-27T13:27:38.322Z,21.98
2022-10-27T13:30:05.213Z,22.09
2022-10-27T13:32:32.724Z,20.64
2022-10-27T13:34:59.479Z,19.07
2022-10-27T13:37:26.233Z,19.01
2022-10-27T13:39:53.081Z,20.93
2022-10-27T13:44:51.541Z,21.57
2022-10-27T13:47:18.338Z,21.90
2022-10-27T13:49:45.103Z,21.85
2022-10-27T13:52:14.849Z,21.87
2022-10-27T13:54:41.604Z,22.05
2022-10-27T13:57:08.352Z,22.13
2022-10-27T13:59:35.107Z,19.61
2022-10-27T14:02:01.971Z,18.81
2022-10-27T14:04:28.799Z,19.68
2022-10-27T14:06:55.574Z,20.99
2022-10-27T14:09:22.348Z,21.38
2022-10-27T14:11:49.086Z,21.67
2022-10-27T14:14:15.821Z,21.76
2022-10-27T14:16:42.623Z,21.87
2022-10-27T14:19:09.450Z,21.97
2022-10-27T14:21:36.267Z,21.99
2022-10-27T14:24:03.025Z,22.09
2022-10-27T14:26:29.822Z,19.41
2022-10-27T14:28:56.565Z,19.07
2022-10-27T14:31:26.113Z,20.02
2022-10-27T14:33:52.877Z,21.45
2022-10-27T14:36:24.424Z,21.43
2022-10-27T14:38:51.206Z,21.67
2022-10-27T14:41:18.001Z,21.99
2022-10-27T14:43:44.818Z,21.98
2022-10-27T14:46:11.576Z,22.00
2022-10-27T14:48:38.324Z,22.01
2022-10-27T14:53:36.771Z,18.87
2022-10-27T14:56:03.524Z,19.00
2022-10-27T14:58:30.271Z,20.77
2022-10-27T15:00:57.036Z,21.18
2022-10-27T15:03:23.809Z,21.57
2022-10-27T15:05:50.558Z,21.68
2022-10-27T15:08:17.307Z,21.77
2022-10-27T15:10:44.053Z,21.80
2022-10-27T15:13:10.798Z,21.93
2022-10-27T15:15:42.032Z,22.00
2022-10-27T15:18:09.236Z,19.14
2022-10-27T15:20:36.059Z,19.07
2022-10-27T15:23:02.852Z,20.36
2022-10-27T15:25:29.597Z,21.24
2022-10-27T15:27:56.344Z,21.48
2022-10-27T15:30:23.189Z,21.60
2022-10-27T15:32:50.427Z,21.66
2022-10-27T15:35:17.377Z,21.89
2022-10-27T15:37:44.159Z,21.95
2022-10-27T15:40:10.908Z,22.04
2022-10-27T15:42:37.657Z,20.71
2022-10-27T15:45:04.425Z,19.02
2022-10-27T15:47:31.276Z,18.87
2022-10-27T15:49:58.117Z,20.73
2022-10-27T15:52:29.249Z,21.22
2022-10-27T15:54:56.084Z,21.28
2022-10-27T15:57:22.821Z,21.64
2022-10-27T15:59:49.576Z,21.81
2022-10-27T16:02:16.328Z,21.87
2022-10-27T16:04:47.342Z,22.08
2022-10-27T16:07:16.383Z,21.86
2022-10-27T16:09:43.161Z,19.28
2022-10-27T16:12:09.904Z,18.62
2022-10-27T16:14:36.659Z,20.02
2022-10-27T16:17:03.413Z,21.08
2022-10-27T16:19:30.165Z,21.20
2022-10-27T16:21:56.930Z,21.49
2022-10-27T16:24:24.905Z,21.64
2022-10-27T16:26:52.880Z,21.83
2022-10-27T16:29:19.645Z,21.77
2022-10-27T16:31:46.418Z,22.06
2022-10-27T16:34:15.098Z,20.89
2022-10-27T16:36:44.660Z,18.86
2022-10-27T16:39:11.410Z,18.73
2022-10-27T16:41:38.155Z,20.77
2022-10-27T16:44:04.916Z,21.27
2022-10-27T16:46:31.668Z,21.38
2022-10-27T16:48:58.490Z,21.61
2022-10-27T16:51:25.251Z,21.64
2022-10-27T16:53:52.004Z,21.76
2022-10-27T16:56:18.757Z,21.97
2022-10-27T16:58:45.811Z,21.88
2022-10-27T17:01:12.758Z,22.15
2022-10-27T17:03:39.600Z,19.73
2022-10-27T17:06:06.384Z,18.63
2022-10-27T17:08:33.124Z,19.27
2022-10-27T17:10:59.861Z,20.97
2022-10-27T17:13:26.753Z,21.11
2022-10-27T17:15:53.553Z,21.45
2022-10-27T17:18:20.302Z,21.59
2022-10-27T17:20:47.157Z,21.71
2022-10-27T17:23:13.966Z,21.81
2022-10-27T17:25:40.741Z,21.79
2022-10-27T17:28:07.496Z,21.99
2022-10-27T17:30:34.228Z,21.29
2022-10-27T17:33:00.996Z,18.88
2022-10-27T17:35:27.752Z,18.51
2022-10-27T17:37:54.927Z,20.14
2022-10-27T17:40:23.388Z,21.13
2022-10-27T17:42:50.144Z,21.27
2022-10-27T17:45:17.380Z,21.52
2022-10-27T17:47:44.520Z,21.80
2022-10-27T17:50:11.321Z,21.74
2022-10-27T17:52:38.104Z,21.89
2022-10-27T17:55:04.936Z,22.06
2022-10-27T17:57:31.756Z,21.97
2022-10-27T17:59:58.500Z,19.32
2022-10-27T18:02:25.318Z,18.65
2022-10-27T18:04:52.151Z,19.73
2022-10-27T18:07:18.978Z,20.77
2022-10-27T18:09:45.783Z,21.15
2022-10-27T18:12:12.555Z,21.25
2022-10-27T18:14:39.309Z,21.57
2022-10-27T18:17:07.617Z,21.67
2022-10-27T18:19:37.590Z,21.93
2022-10-27T18:22:04.396Z,21.95
2022-10-27T18:24:31.166Z,21.87
2022-10-27T18:26:57.939Z,22.27
2022-10-27T18:29:26.540Z,19.74
2022-10-27T18:31:53.675Z,18.64
2022-10-27T18:34:20.448Z,19.32
2022-10-27T18:36:47.197Z,20.82
2022-10-27T18:39:13.955Z,21.30
2022-10-27T18:41:40.816Z,21.40
2022-10-27T18:44:08.268Z,21.64
2022-10-27T18:46:36.279Z,21.67
2022-10-27T18:49:04.008Z,21.85
2022-10-27T18:51:30.789Z,22.04
2022-10-27T18:53:57.613Z,21.95
2022-10-27T18:56:24.792Z,22.12
2022-10-27T18:58:51.538Z,19.59
2022-10-27T19:01:18.354Z,18.81
2022-10-27T19:03:47.314Z,19.38
2022-10-27T19:06:16.053Z,20.72
2022-10-27T19:08:42.873Z,21.23
2022-10-27T19:11:09.682Z,21.45
2022-10-27T19:13:37.947Z,21.63
2022-10-27T19:16:04.682Z,21.69
2022-10-27T19:18:31.509Z,21.70
2022-10-27T19:20:58.442Z,21.91
2022-10-27T19:23:25.219Z,21.94
2022-10-27T19:25:53.045Z,22.01
2022-10-27T19:28:20.123Z,19.05
2022-10-27T19:30:46.866Z,17.80
2022-10-27T19:33:13.653Z,18.84
2022-10-27T19:35:40.442Z,19.95
2022-10-27T19:38:07.180Z,20.64
2022-10-27T19:40:33.946Z,20.99
2022-10-27T19:43:00.697Z,21.44
2022-10-27T19:45:27.922Z,21.41
2022-10-27T19:47:55.152Z,21.48
2022-10-27T19:50:22.100Z,21.63
2022-10-27T19:52:48.861Z,21.79
2022-10-27T19:55:15.620Z,21.86
2022-10-27T19:57:42.778Z,22.01
2022-10-27T20:00:09.525Z,21.90
2022-10-27T20:02:36.869Z,21.63
2022-10-27T20:05:03.806Z,18.73
2022-10-27T20:07:30.551Z,17.85
2022-10-27T20:09:57.313Z,18.93
2022-10-27T20:12:24.061Z,19.74
2022-10-27T20:14:50.810Z,20.67
2022-10-27T20:17:19.434Z,21.04
2022-10-27T20:19:46.176Z,21.31
2022-10-27T20:22:12.922Z,21.44
2022-10-27T20:24:39.693Z,21.51
2022-10-27T20:27:06.459Z,21.76
2022-10-27T20:29:35.564Z,21.74
2022-10-27T20:32:02.673Z,21.76
2022-10-27T20:34:29.418Z,21.95
2022-10-27T20:36:56.222Z,21.94
2022-10-27T20:39:23.130Z,22.15
2022-10-27T20:41:49.915Z,22.14
2022-10-27T20:44:16.685Z,19.37
2022-10-27T20:46:43.573Z,17.93
2022-10-27T20:49:10.317Z,18.67
2022-10-27T20:51:37.123Z,20.25
2022-10-27T20:54:03.940Z,20.95
2022-10-27T20:56:30.692Z,21.17
2022-10-27T20:58:57.488Z,21.30
2022-10-27T21:01:24.452Z,21.64
2022-10-27T21:03:51.322Z,21.64
2022-10-27T21:06:18.086Z,21.77
2022-10-27T21:08:44.862Z,21.78
2022-10-27T21:11:11.633Z,21.92
2022-10-27T21:13:38.489Z,21.97
2022-10-27T21:16:05.289Z,22.09
2022-10-27T21:18:32.104Z,20.25
2022-10-27T21:20:58.968Z,18.37
2022-10-27T21:23:25.833Z,17.81
2022-10-27T21:25:52.616Z,19.34
2022-10-27T21:28:19.425Z,20.05
2022-10-27T21:30:46.204Z,20.72
2022-10-27T21:33:12.960Z,21.09
2022-10-27T21:35:39.701Z,21.35
2022-10-27T21:38:06.488Z,21.60
2022-10-27T21:40:33.233Z,21.69
2022-10-27T21:43:00.022Z,21.67
2022-10-27T21:45:26.873Z,21.83
2022-10-27T21:47:53.830Z,21.88
2022-10-27T21:50:20.945Z,22.05
2022-10-27T21:52:47.745Z,22.08
2022-10-27T21:55:14.519Z,21.11
2022-10-27T21:57:42.996Z,18.81
2022-10-27T22:00:09.760Z,18.69
2022-10-27T22:02:36.510Z,20.48
2022-10-27T22:05:03.323Z,21.23
2022-10-27T22:07:30.108Z,21.42
2022-10-27T22:09:56.845Z,21.47
2022-10-27T22:12:23.635Z,21.60
2022-10-27T22:14:50.393Z,21.91
2022-10-27T22:17:17.153Z,21.92
2022-10-27T22:19:43.949Z,21.86
2022-10-27T22:22:10.715Z,22.14
2022-10-27T22:24:37.464Z,22.07
2022-10-27T22:27:04.228Z,19.83
2022-10-27T22:29:31.000Z,18.79
2022-10-27T22:31:57.773Z,19.28
2022-10-27T22:34:24.518Z,20.77
2022-10-27T22:36:51.282Z,21.16
2022-10-27T22:39:18.027Z,21.45
2022-10-27T22:41:44.765Z,21.61
2022-10-27T22:44:11.532Z,21.79
2022-10-27T22:46:38.293Z,21.80
2022-10-27T22:49:05.084Z,21.94
2022-10-27T22:51:31.852Z,22.04
2022-10-27T22:53:58.612Z,22.22
2022-10-27T22:56:25.375Z,19.47
2022-10-27T22:58:52.152Z,18.86
2022-10-27T23:01:19.114Z,19.82
2022-10-27T23:03:46.002Z,20.79
2022-10-27T23:06:12.778Z,21.27
2022-10-27T23:08:39.526Z,21.47
2022-10-27T23:11:06.267Z,21.57
2022-10-27T23:13:33.028Z,21.63
2022-10-27T23:15:59.781Z,21.90
2022-10-27T23:18:26.516Z,22.10
2022-10-27T23:20:53.282Z,21.99
2022-10-27T23:23:20.029Z,20.59
2022-10-27T23:25:46.778Z,18.75
2022-10-27T23:28:13.546Z,18.52
2022-10-27T23:30:40.292Z,20.29
2022-10-27T23:33:07.040Z,21.02
2022-10-27T23:35:33.836Z,21.18
2022-10-27T23:38:00.582Z,21.47
2022-10-27T23:40:27.331Z,21.60
2022-10-27T23:42:54.877Z,21.66
2022-10-27T23:45:22.196Z,21.85
2022-10-27T23:47:49.042Z,21.95
2022-10-27T23:50:15.996Z,21.99
2022-10-27T23:52:42.793Z,22.03
2022-10-27T23:55:09.535Z,21.71
2022-10-27T23:57:36.302Z,19.14
